createdAt,value
2022-08-18T00:02:30.642Z,93.50
2022-08-18T00:06:34.216Z,93.60
2022-08-18T00:10:37.058Z,93.40
2022-08-18T00:14:39.865Z,93.40
2022-08-18T00:18:44.149Z,92.90
2022-08-18T00:22:47.381Z,93.10
2022-08-18T00:26:50.260Z,93.50
2022-08-18T00:30:53.768Z,93.10
2022-08-18T00:34:58.533Z,93.60
2022-08-18T00:39:01.404Z,93.30
2022-08-18T00:43:05.747Z,93.30
2022-08-18T00:47:08.577Z,93.60
2022-08-18T00:51:13.939Z,93.60
2022-08-18T00:55:18.262Z,93.90
2022-08-18T00:59:24.599Z,93.80
2022-08-18T01:03:29.044Z,94.00
2022-08-18T01:07:36.859Z,94.70
2022-08-18T01:11:39.898Z,94.80
2022-08-18T01:15:42.764Z,94.10
2022-08-18T01:20:03.114Z,94.20
2022-08-18T01:24:09.725Z,94.10
2022-08-18T01:28:12.536Z,93.60
2022-08-18T01:32:16.558Z,93.60
2022-08-18T01:36:20.590Z,93.50
2022-08-18T01:41:24.227Z,93.30
2022-08-18T01:44:48.948Z,94.10
2022-08-18T01:48:51.904Z,94.50
2022-08-18T01:52:56.041Z,94.20
2022-08-18T01:57:01.028Z,94.40
2022-08-18T02:01:09.411Z,93.90
2022-08-18T02:05:14.275Z,94.90
2022-08-18T02:09:17.119Z,94.90
2022-08-18T02:13:28.676Z,94.20
2022-08-18T02:17:37.382Z,94.60
2022-08-18T02:21:40.194Z,93.70
2022-08-18T02:25:43.505Z,92.80
2022-08-18T02:29:47.703Z,92.90
2022-08-18T02:33:52.401Z,92.90
2022-08-18T02:37:55.569Z,92.40
2022-08-18T02:41:58.520Z,92.10
2022-08-18T02:46:03.128Z,92.30
2022-08-18T02:50:06.395Z,92.20
2022-08-18T02:54:11.418Z,92.20
2022-08-18T02:58:14.336Z,92.10
2022-08-18T03:02:18.617Z,92.40
2022-08-18T03:06:22.727Z,93.30
2022-08-18T03:10:33.551Z,93.10
2022-08-18T03:14:37.642Z,93.40
2022-08-18T03:18:42.514Z,93.30
2022-08-18T03:22:45.367Z,93.60
2022-08-18T03:26:48.517Z,93.20
2022-08-18T03:30:51.362Z,93.80
2022-08-18T03:34:55.645Z,94.90
2022-08-18T03:38:58.926Z,93.50
2022-08-18T03:43:49.853Z,94.30
2022-08-18T03:47:29.374Z,94.30
2022-08-18T03:51:33.972Z,94.20
2022-08-18T03:55:36.848Z,94.30
2022-08-18T03:59:43.757Z,94.00
2022-08-18T04:03:47.885Z,93.80
2022-08-18T04:07:54.487Z,94.50
2022-08-18T04:11:58.244Z,94.20
2022-08-18T04:16:01.159Z,94.10
2022-08-18T04:20:04.496Z,93.70
2022-08-18T04:24:09.279Z,93.10
2022-08-18T04:28:12.080Z,93.40
2022-08-18T04:32:16.180Z,94.00
2022-08-18T04:36:20.646Z,93.60
2022-08-18T04:40:27.258Z,93.00
2022-08-18T04:44:30.214Z,93.10
2022-08-18T04:48:34.048Z,92.60
2022-08-18T04:52:54.438Z,92.50
2022-08-18T04:56:58.665Z,92.40
2022-08-18T05:01:02.878Z,92.30
2022-08-18T05:05:06.079Z,93.00
2022-08-18T05:09:09.863Z,92.90
2022-08-18T05:13:18.160Z,93.80
2022-08-18T05:17:21.027Z,93.30
2022-08-18T05:21:25.424Z,93.10
2022-08-18T05:25:29.398Z,94.00
2022-08-18T05:29:41.646Z,93.40
2022-08-18T05:33:49.381Z,93.40
2022-08-18T05:38:01.515Z,95.40
2022-08-18T05:42:07.128Z,95.90
2022-08-18T05:46:11.564Z,97.80
2022-08-18T05:50:16.483Z,97.00
2022-08-18T05:54:37.787Z,98.60
2022-08-18T05:58:43.242Z,97.50
2022-08-18T06:02:49.734Z,98.30
2022-08-18T06:06:54.604Z,98.80
2022-08-18T06:10:57.617Z,96.80
2022-08-18T06:15:05.828Z,98.10
2022-08-18T06:19:17.335Z,96.20
2022-08-18T06:23:28.351Z,96.90
2022-08-18T06:27:39.648Z,99.60
2022-08-18T06:31:46.395Z,99.60
2022-08-18T06:35:51.959Z,96.80
2022-08-18T06:39:57.130Z,96.50
2022-08-18T06:44:01.322Z,96.10
2022-08-18T06:48:15.078Z,95.50
2022-08-18T06:52:24.897Z,95.60
2022-08-18T06:56:33.236Z,95.60
2022-08-18T07:00:37.485Z,95.00
2022-08-18T07:04:43.765Z,96.30
2022-08-18T07:08:48.296Z,95.70
2022-08-18T07:12:51.845Z,97.40
2022-08-18T07:17:07.054Z,98.10
2022-08-18T07:21:10.187Z,96.40
2022-08-18T07:25:19.226Z,98.00
2022-08-18T07:29:22.049Z,98.20
2022-08-18T07:33:26.931Z,96.60
2022-08-18T07:37:31.068Z,97.20
2022-08-18T07:41:40.967Z,96.70
2022-08-18T07:45:44.477Z,96.50
2022-08-18T07:50:15.702Z,97.10
2022-08-18T07:54:47.133Z,95.70
2022-08-18T07:58:45.801Z,96.00
2022-08-18T08:02:54.776Z,95.60
2022-08-18T08:07:23.368Z,97.00
2022-08-18T08:11:29.819Z,96.30
2022-08-18T08:15:38.469Z,97.90
2022-08-18T08:20:03.929Z,96.90
2022-08-18T08:24:12.183Z,97.50
2022-08-18T08:28:23.327Z,98.00
2022-08-18T08:32:31.445Z,97.70
2022-08-18T08:36:36.950Z,97.20
2022-08-18T08:45:07.723Z,97.20
2022-08-18T08:49:17.035Z,97.50
2022-08-18T08:53:22.502Z,99.20
2022-08-18T08:57:28.450Z,97.90
2022-08-18T09:01:34.726Z,98.20
2022-08-18T09:05:41.588Z,97.00
2022-08-18T09:10:02.155Z,97.40
2022-08-18T09:14:15.159Z,97.90
2022-08-18T09:18:36.431Z,97.40
2022-08-18T09:22:46.902Z,98.50
2022-08-18T09:26:52.824Z,97.60
2022-08-18T09:31:10.648Z,97.60
2022-08-18T09:35:19.416Z,97.60
2022-08-18T09:39:53.823Z,97.30
2022-08-18T09:44:18.220Z,97.50
2022-08-18T09:48:33.902Z,97.50
2022-08-18T09:52:53.755Z,96.50
2022-08-18T09:57:20.874Z,96.80
2022-08-18T10:01:37.233Z,96.70
2022-08-18T10:05:41.050Z,96.80
2022-08-18T10:09:48.257Z,96.40
2022-08-18T10:14:09.536Z,97.00
2022-08-18T10:18:24.350Z,96.30
2022-08-18T10:22:43.307Z,96.20
2022-08-18T10:27:06.894Z,96.10
2022-08-18T10:31:10.276Z,97.10
2022-08-18T10:35:34.391Z,96.80
2022-08-18T10:44:28.180Z,96.60
2022-08-18T10:48:34.238Z,97.40
2022-08-18T10:52:58.975Z,96.90
2022-08-18T10:57:17.971Z,97.00
2022-08-18T11:01:27.107Z,96.70
2022-08-18T12:02:26.959Z,95.70
2022-08-18T12:06:30.661Z,96.10
2022-08-18T12:10:33.813Z,95.80
2022-08-18T12:14:52.001Z,95.80
2022-08-18T12:18:56.174Z,95.20
2022-08-18T12:22:59.326Z,95.30
2022-08-18T12:27:02.198Z,95.20
2022-08-18T12:31:17.276Z,95.40
2022-08-18T12:35:22.486Z,94.50
2022-08-18T12:39:26.027Z,94.40
2022-08-18T12:43:32.255Z,94.10
2022-08-18T12:47:38.392Z,94.30
2022-08-18T12:51:46.891Z,93.90
2022-08-18T12:55:53.518Z,93.90
2022-08-18T12:59:56.340Z,93.10
2022-08-18T13:04:13.225Z,94.10
2022-08-18T13:08:30.060Z,94.30
2022-08-18T13:12:34.088Z,92.80
2022-08-18T13:16:53.555Z,93.40
2022-08-18T13:20:58.571Z,93.60
2022-08-18T13:25:05.457Z,93.70
2022-08-18T13:29:10.138Z,93.40
2022-08-18T13:33:34.991Z,92.50
2022-08-18T13:37:36.389Z,93.60
2022-08-18T13:41:43.320Z,93.00
2022-08-18T13:45:53.475Z,92.70
2022-08-18T13:49:59.983Z,93.10
2022-08-18T13:54:30.438Z,92.70
2022-08-18T13:58:27.216Z,92.90
2022-08-18T14:02:30.143Z,92.70
2022-08-18T14:06:33.246Z,92.20
2022-08-18T14:10:38.550Z,91.90
2022-08-18T14:14:43.014Z,91.90
2022-08-18T14:19:09.934Z,90.80
2022-08-18T14:23:33.204Z,91.20
2022-08-18T14:27:37.335Z,91.40
2022-08-18T14:31:42.231Z,92.00
2022-08-18T14:36:06.226Z,92.10
2022-08-18T14:40:12.461Z,91.90
2022-08-18T14:44:17.800Z,91.40
2022-08-18T14:48:30.087Z,91.40
2022-08-18T14:52:33.112Z,90.80
2022-08-18T14:56:38.244Z,91.10
2022-08-18T15:00:53.666Z,91.20
2022-08-18T15:05:00.644Z,91.60
2022-08-18T15:09:23.544Z,91.30
2022-08-18T15:13:27.705Z,91.60
2022-08-18T15:17:38.701Z,91.50
2022-08-18T15:22:00.314Z,90.80
2022-08-18T15:26:03.892Z,91.10
2022-08-18T15:30:11.333Z,91.10
2022-08-18T15:34:14.244Z,91.20
2022-08-18T15:38:26.006Z,90.90
2022-08-18T15:42:30.030Z,91.30
2022-08-18T15:46:33.636Z,91.50
2022-08-18T15:50:39.038Z,91.50
2022-08-18T15:54:43.755Z,91.20
2022-08-18T15:58:53.441Z,91.10
2022-08-18T16:02:57.501Z,91.10
2022-08-18T16:07:00.451Z,91.20
2022-08-18T16:11:09.483Z,91.30
2022-08-18T16:15:21.176Z,91.30
2022-08-18T16:19:25.731Z,91.40
2022-08-18T16:23:28.781Z,91.60
2022-08-18T16:27:34.392Z,91.50
2022-08-18T16:31:37.193Z,91.90
2022-08-18T16:35:40.012Z,92.00
2022-08-18T16:39:48.230Z,92.00
2022-08-18T16:43:52.582Z,92.00
2022-08-18T16:47:55.430Z,91.50
2022-08-18T16:51:58.225Z,92.00
2022-08-18T16:56:01.083Z,91.70
2022-08-18T17:00:24.495Z,91.50
2022-08-18T17:04:29.454Z,91.30
2022-08-18T17:08:34.257Z,91.00
2022-08-18T17:12:37.314Z,90.60
2022-08-18T17:16:41.534Z,90.70
2022-08-18T17:20:44.405Z,90.90
2022-08-18T17:24:49.682Z,90.90
2022-08-18T17:28:55.572Z,90.90
2022-08-18T17:33:03.926Z,90.90
2022-08-18T17:37:09.111Z,90.80
2022-08-18T17:45:44.307Z,90.90
2022-08-18T17:50:27.802Z,90.90
2022-08-18T17:54:36.461Z,91.00
2022-08-18T17:58:41.593Z,91.20
2022-08-18T18:02:45.419Z,91.40
2022-08-18T18:06:49.699Z,91.50
2022-08-18T18:11:08.640Z,92.20
2022-08-18T18:15:12.995Z,91.90
2022-08-18T18:19:15.800Z,92.50
2022-08-18T18:23:21.476Z,92.00
2022-08-18T18:27:29.347Z,92.10
2022-08-18T18:31:33.358Z,92.40
2022-08-18T18:35:54.500Z,92.50
2022-08-18T18:40:00.247Z,92.30
2022-08-18T18:44:07.713Z,92.90
2022-08-18T18:48:51.236Z,93.10
2022-08-18T18:52:42.268Z,93.40
2022-08-18T18:56:50.224Z,94.00
2022-08-18T19:00:59.431Z,93.20
2022-08-18T19:05:05.723Z,93.90
2022-08-18T19:09:09.978Z,93.60
2022-08-18T19:13:25.103Z,94.30
2022-08-18T19:17:40.151Z,93.90
2022-08-18T19:22:05.488Z,94.10
2022-08-18T19:26:10.623Z,93.40
2022-08-18T19:30:16.508Z,94.20
2022-08-18T19:34:22.787Z,93.80
2022-08-18T19:38:35.050Z,94.00
2022-08-18T19:42:41.121Z,93.70
2022-08-18T19:46:48.332Z,94.90
2022-08-18T19:50:53.996Z,94.00
2022-08-18T19:55:01.473Z,95.40
2022-08-18T19:59:19.547Z,95.20
2022-08-18T20:03:36.222Z,95.30
2022-08-18T20:07:59.956Z,95.30
2022-08-18T20:12:08.237Z,94.40
2022-08-18T20:16:16.132Z,94.10
2022-08-18T20:20:21.946Z,94.10
2022-08-18T20:24:42.468Z,95.30
2022-08-18T20:28:45.291Z,95.60
2022-08-18T20:33:05.466Z,94.10
2022-08-18T20:37:09.640Z,94.40
2022-08-18T20:41:27.086Z,95.50
2022-08-18T20:45:30.371Z,95.40
2022-08-18T20:49:40.661Z,95.30
2022-08-18T20:53:56.978Z,95.00
2022-08-18T20:58:01.675Z,95.10
2022-08-18T21:02:09.432Z,94.90
2022-08-18T21:06:14.407Z,94.80
2022-08-18T21:10:20.775Z,95.10
2022-08-18T21:14:30.061Z,94.70
2022-08-18T21:18:35.078Z,95.30
2022-08-18T21:22:40.539Z,95.20
2022-08-18T21:26:47.026Z,94.40
2022-08-18T21:30:57.107Z,94.40
2022-08-18T21:35:22.279Z,95.40
2022-08-18T21:39:25.956Z,95.80
2022-08-18T21:43:41.342Z,95.70
2022-08-18T21:47:50.555Z,95.50
2022-08-18T21:51:53.847Z,95.40
2022-08-18T21:55:58.109Z,95.40
2022-08-18T22:00:19.914Z,95.30
2022-08-18T22:04:25.734Z,95.00
2022-08-18T22:08:29.832Z,95.80
2022-08-18T22:12:51.222Z,95.50
2022-08-18T22:17:15.571Z,94.70
2022-08-18T22:21:33.716Z,95.20
2022-08-18T22:25:35.769Z,96.00
2022-08-18T22:29:45.746Z,94.50
2022-08-18T22:33:48.724Z,95.00
2022-08-18T22:37:52.955Z,94.50
2022-08-18T22:41:56.027Z,95.10
2022-08-18T22:45:58.840Z,94.70
2022-08-18T22:50:01.840Z,94.90
2022-08-18T22:54:08.406Z,95.50
2022-08-18T22:58:11.429Z,95.80
2022-08-18T23:02:14.907Z,95.50
2022-08-18T23:06:28.554Z,95.50
2022-08-18T23:10:32.756Z,95.30
2022-08-18T23:14:35.724Z,94.90
2022-08-18T23:18:38.552Z,95.30
2022-08-18T23:22:41.790Z,95.30
2022-08-18T23:26:46.616Z,94.60
2022-08-18T23:30:50.430Z,94.70
2022-08-18T23:34:53.232Z,94.50
2022-08-18T23:38:56.068Z,94.80
2022-08-18T23:43:00.243Z,94.90
2022-08-18T23:47:03.342Z,94.90
2022-08-18T23:51:06.494Z,94.80
2022-08-18T23:55:10.674Z,95.00
2022-08-18T23:59:15.418Z,94.90
